Terminal Aerodrome Forecast
Issued by NWS

Home | Current Version | Previous Version | Graphics & Text | Print | Product List | Glossary On
Versions: 1 2 3 4 5 6 7 8 9 10 11 12 13 14 15 16 17 18
891
FTUS43 KTOP 181720
TAFFOE
TAF
KFOE 181720Z 1818/1918 25009KT P6SM SCT150
     FM190000 32005KT P6SM VCTS BKN050CB
     FM190300 VRB03KT P6SM SKC=

USA.gov is the U.S. government's official web portal to all federal, state and local government web resources and services.